sensor_id;sensor_type;location;lat;lon;timestamp;pressure;altitude;pressure_sealevel;temperature;humidity
79663;BME280;69130;48.724;8.982;2023-05-27T00:00:11;97191.31;;;12.35;71.29
79663;BME280;69130;48.724;8.982;2023-05-27T00:02:38;97192.25;;;12.34;72.83
79663;BME280;69130;48.724;8.982;2023-05-27T00:05:03;97189.78;;;12.31;71.67
79663;BME280;69130;48.724;8.982;2023-05-27T00:07:30;97195.66;;;12.36;72.68
79663;BME280;69130;48.724;8.982;2023-05-27T00:09:56;97193.84;;;12.36;72.45
79663;BME280;69130;48.724;8.982;2023-05-27T00:12:22;97197.06;;;12.41;73.11
79663;BME280;69130;48.724;8.982;2023-05-27T00:14:47;97188.06;;;12.44;70.65
79663;BME280;69130;48.724;8.982;2023-05-27T00:17:12;97192.78;;;12.53;70.93
79663;BME280;69130;48.724;8.982;2023-05-27T00:19:39;97196.00;;;12.58;69.36
79663;BME280;69130;48.724;8.982;2023-05-27T00:22:05;97190.19;;;12.65;68.41
79663;BME280;69130;48.724;8.982;2023-05-27T00:24:30;97195.19;;;12.70;67.01
79663;BME280;69130;48.724;8.982;2023-05-27T00:26:55;97184.28;;;12.74;67.78
79663;BME280;69130;48.724;8.982;2023-05-27T00:29:21;97192.91;;;12.78;68.54
79663;BME280;69130;48.724;8.982;2023-05-27T00:31:47;97183.31;;;12.75;68.94
79663;BME280;69130;48.724;8.982;2023-05-27T00:34:12;97187.63;;;12.64;66.31
79663;BME280;69130;48.724;8.982;2023-05-27T00:36:37;97192.19;;;12.62;68.50
79663;BME280;69130;48.724;8.982;2023-05-27T00:39:03;97188.03;;;12.58;69.25
79663;BME280;69130;48.724;8.982;2023-05-27T00:41:30;97193.84;;;12.50;68.95
79663;BME280;69130;48.724;8.982;2023-05-27T00:43:56;97186.38;;;12.43;69.82
79663;BME280;69130;48.724;8.982;2023-05-27T00:46:21;97184.75;;;12.40;70.10
79663;BME280;69130;48.724;8.982;2023-05-27T00:48:47;97193.22;;;12.33;71.39
79663;BME280;69130;48.724;8.982;2023-05-27T00:51:13;97186.66;;;12.24;70.77
79663;BME280;69130;48.724;8.982;2023-05-27T00:53:40;97183.75;;;12.14;69.71
79663;BME280;69130;48.724;8.982;2023-05-27T00:56:07;97188.50;;;12.09;72.48
79663;BME280;69130;48.724;8.982;2023-05-27T00:58:34;97179.31;;;12.01;71.92
79663;BME280;69130;48.724;8.982;2023-05-27T01:00:59;97180.25;;;12.00;73.40
79663;BME280;69130;48.724;8.982;2023-05-27T01:03:25;97183.28;;;11.94;74.13
79663;BME280;69130;48.724;8.982;2023-05-27T01:05:54;97181.31;;;11.83;73.26
79663;BME280;69130;48.724;8.982;2023-05-27T01:08:37;97178.06;;;11.78;74.20
79663;BME280;69130;48.724;8.982;2023-05-27T01:11:07;97175.13;;;11.69;73.45
79663;BME280;69130;48.724;8.982;2023-05-27T01:13:39;97169.94;;;11.67;75.41
79663;BME280;69130;48.724;8.982;2023-05-27T01:16:13;97172.94;;;11.61;73.72
79663;BME280;69130;48.724;8.982;2023-05-27T01:18:42;97175.56;;;11.61;75.12
79663;BME280;69130;48.724;8.982;2023-05-27T01:21:14;97174.81;;;11.59;74.58
79663;BME280;69130;48.724;8.982;2023-05-27T01:23:41;97167.22;;;11.53;74.85
79663;BME280;69130;48.724;8.982;2023-05-27T01:26:07;97168.38;;;11.49;75.35
79663;BME280;69130;48.724;8.982;2023-05-27T01:28:32;97160.69;;;11.44;75.79
79663;BME280;69130;48.724;8.982;2023-05-27T01:31:09;97165.03;;;11.31;75.81
79663;BME280;69130;48.724;8.982;2023-05-27T01:33:38;97164.72;;;11.22;76.01
79663;BME280;69130;48.724;8.982;2023-05-27T01:36:10;97175.69;;;11.16;76.52
79663;BME280;69130;48.724;8.982;2023-05-27T01:38:38;97167.91;;;11.13;76.60
79663;BME280;69130;48.724;8.982;2023-05-27T01:41:05;97159.66;;;11.03;75.98
79663;BME280;69130;48.724;8.982;2023-05-27T01:43:33;97154.56;;;11.00;75.57
79663;BME280;69130;48.724;8.982;2023-05-27T01:45:58;97153.44;;;11.04;76.18
79663;BME280;69130;48.724;8.982;2023-05-27T01:48:24;97149.16;;;11.02;76.48
79663;BME280;69130;48.724;8.982;2023-05-27T01:50:49;97151.41;;;10.94;76.85
79663;BME280;69130;48.724;8.982;2023-05-27T01:53:15;97148.66;;;10.95;76.96
79663;BME280;69130;48.724;8.982;2023-05-27T01:55:40;97146.00;;;10.95;78.33
79663;BME280;69130;48.724;8.982;2023-05-27T01:58:05;97147.41;;;10.87;78.46
79663;BME280;69130;48.724;8.982;2023-05-27T02:00:31;97145.13;;;10.81;78.29
79663;BME280;69130;48.724;8.982;2023-05-27T02:02:56;97137.34;;;10.78;79.25
79663;BME280;69130;48.724;8.982;2023-05-27T02:05:21;97135.59;;;10.63;79.14
79663;BME280;69130;48.724;8.982;2023-05-27T02:07:47;97126.91;;;10.61;79.54
79663;BME280;69130;48.724;8.982;2023-05-27T02:10:12;97135.19;;;10.54;78.03
79663;BME280;69130;48.724;8.982;2023-05-27T02:12:37;97134.94;;;10.59;78.65
79663;BME280;69130;48.724;8.982;2023-05-27T02:15:03;97137.63;;;10.57;78.88
79663;BME280;69130;48.724;8.982;2023-05-27T02:17:29;97134.75;;;10.62;78.91
79663;BME280;69130;48.724;8.982;2023-05-27T02:19:54;97136.38;;;10.65;78.60
79663;BME280;69130;48.724;8.982;2023-05-27T02:22:21;97133.72;;;10.65;79.97
79663;BME280;69130;48.724;8.982;2023-05-27T02:24:46;97130.16;;;10.50;79.45
79663;BME280;69130;48.724;8.982;2023-05-27T02:27:12;97133.09;;;10.45;79.80
79663;BME280;69130;48.724;8.982;2023-05-27T02:29:38;97129.81;;;10.40;79.92
79663;BME280;69130;48.724;8.982;2023-05-27T02:32:03;97130.16;;;10.34;79.53
79663;BME280;69130;48.724;8.982;2023-05-27T02:34:29;97132.66;;;10.37;79.80
79663;BME280;69130;48.724;8.982;2023-05-27T02:36:54;97131.59;;;10.40;80.17
79663;BME280;69130;48.724;8.982;2023-05-27T02:39:20;97123.88;;;10.37;80.25
79663;BME280;69130;48.724;8.982;2023-05-27T02:41:45;97123.00;;;10.36;80.15
79663;BME280;69130;48.724;8.982;2023-05-27T02:44:11;97127.81;;;10.30;80.74
79663;BME280;69130;48.724;8.982;2023-05-27T02:46:36;97128.16;;;10.24;79.97
79663;BME280;69130;48.724;8.982;2023-05-27T02:49:02;97126.69;;;10.18;80.60
79663;BME280;69130;48.724;8.982;2023-05-27T02:51:28;97130.44;;;10.14;81.56
79663;BME280;69130;48.724;8.982;2023-05-27T02:53:53;97131.53;;;10.10;81.69
79663;BME280;69130;48.724;8.982;2023-05-27T02:56:19;97138.66;;;10.08;82.33
79663;BME280;69130;48.724;8.982;2023-05-27T02:58:44;97128.47;;;10.02;82.50
79663;BME280;69130;48.724;8.982;2023-05-27T03:01:10;97129.63;;;9.97;81.27
79663;BME280;69130;48.724;8.982;2023-05-27T03:03:35;97132.22;;;9.98;82.17
79663;BME280;69130;48.724;8.982;2023-05-27T03:06:01;97126.22;;;9.95;82.21
79663;BME280;69130;48.724;8.982;2023-05-27T03:08:26;97115.75;;;9.93;83.40
79663;BME280;69130;48.724;8.982;2023-05-27T03:10:51;97121.69;;;9.81;83.48
79663;BME280;69130;48.724;8.982;2023-05-27T03:13:17;97117.84;;;9.71;83.33
79663;BME280;69130;48.724;8.982;2023-05-27T03:15:42;97112.38;;;9.58;83.75
79663;BME280;69130;48.724;8.982;2023-05-27T03:18:07;97115.84;;;9.59;84.41
79663;BME280;69130;48.724;8.982;2023-05-27T03:20:33;97119.38;;;9.59;85.40
79663;BME280;69130;48.724;8.982;2023-05-27T03:22:58;97121.22;;;9.57;85.76
79663;BME280;69130;48.724;8.982;2023-05-27T03:25:23;97122.78;;;9.61;86.00
79663;BME280;69130;48.724;8.982;2023-05-27T03:27:49;97123.47;;;9.65;85.52
79663;BME280;69130;48.724;8.982;2023-05-27T03:30:14;97119.72;;;9.69;85.67
79663;BME280;69130;48.724;8.982;2023-05-27T03:32:40;97123.22;;;9.69;85.48
79663;BME280;69130;48.724;8.982;2023-05-27T03:35:05;97122.44;;;9.67;84.47
79663;BME280;69130;48.724;8.982;2023-05-27T03:37:31;97123.53;;;9.63;85.35
79663;BME280;69130;48.724;8.982;2023-05-27T03:39:56;97122.44;;;9.67;85.55
79663;BME280;69130;48.724;8.982;2023-05-27T03:42:22;97131.38;;;9.65;85.95
79663;BME280;69130;48.724;8.982;2023-05-27T03:44:47;97132.81;;;9.55;85.42
79663;BME280;69130;48.724;8.982;2023-05-27T03:47:13;97140.31;;;9.47;85.70
79663;BME280;69130;48.724;8.982;2023-05-27T03:49:38;97134.69;;;9.53;86.04
79663;BME280;69130;48.724;8.982;2023-05-27T03:52:04;97139.22;;;9.51;86.20
79663;BME280;69130;48.724;8.982;2023-05-27T03:54:30;97122.94;;;9.43;86.34
79663;BME280;69130;48.724;8.982;2023-05-27T03:56:55;97129.31;;;9.39;87.25
79663;BME280;69130;48.724;8.982;2023-05-27T03:59:20;97118.03;;;9.35;87.13
79663;BME280;69130;48.724;8.982;2023-05-27T04:01:46;97121.38;;;9.39;87.59
79663;BME280;69130;48.724;8.982;2023-05-27T04:04:12;97125.88;;;9.37;88.11
79663;BME280;69130;48.724;8.982;2023-05-27T04:06:38;97119.25;;;9.45;87.75
79663;BME280;69130;48.724;8.982;2023-05-27T04:09:03;97121.09;;;9.43;88.07
79663;BME280;69130;48.724;8.982;2023-05-27T04:11:29;97119.78;;;9.52;87.36
79663;BME280;69130;48.724;8.982;2023-05-27T04:13:55;97116.97;;;9.55;86.33
79663;BME280;69130;48.724;8.982;2023-05-27T04:16:21;97124.66;;;9.59;86.09
79663;BME280;69130;48.724;8.982;2023-05-27T04:18:47;97128.59;;;9.68;86.51
79663;BME280;69130;48.724;8.982;2023-05-27T04:21:23;97122.03;;;9.75;85.72
79663;BME280;69130;48.724;8.982;2023-05-27T04:23:49;97126.41;;;9.76;85.58
79663;BME280;69130;48.724;8.982;2023-05-27T04:26:14;97122.13;;;9.89;86.57
79663;BME280;69130;48.724;8.982;2023-05-27T04:28:40;97124.19;;;10.00;86.14
79663;BME280;69130;48.724;8.982;2023-05-27T04:31:06;97127.19;;;10.09;86.84
79663;BME280;69130;48.724;8.982;2023-05-27T04:33:39;97126.19;;;10.12;86.49
79663;BME280;69130;48.724;8.982;2023-05-27T04:36:08;97127.28;;;10.23;85.84
79663;BME280;69130;48.724;8.982;2023-05-27T04:38:34;97125.06;;;10.31;85.65
79663;BME280;69130;48.724;8.982;2023-05-27T04:41:00;97116.94;;;10.34;84.05
79663;BME280;69130;48.724;8.982;2023-05-27T04:43:26;97120.34;;;10.36;84.41
79663;BME280;69130;48.724;8.982;2023-05-27T04:45:52;97123.59;;;10.41;84.59
79663;BME280;69130;48.724;8.982;2023-05-27T04:48:18;97133.50;;;10.53;84.58
79663;BME280;69130;48.724;8.982;2023-05-27T04:50:45;97128.97;;;10.56;84.83
79663;BME280;69130;48.724;8.982;2023-05-27T04:53:11;97121.69;;;10.59;83.47
79663;BME280;69130;48.724;8.982;2023-05-27T04:55:36;97119.47;;;10.67;83.58
79663;BME280;69130;48.724;8.982;2023-05-27T04:58:02;97121.81;;;10.72;82.08
79663;BME280;69130;48.724;8.982;2023-05-27T05:00:29;97118.47;;;10.84;81.55
79663;BME280;69130;48.724;8.982;2023-05-27T05:03:05;97117.94;;;10.93;81.72
79663;BME280;69130;48.724;8.982;2023-05-27T05:05:31;97120.13;;;11.00;81.17
79663;BME280;69130;48.724;8.982;2023-05-27T05:07:57;97124.50;;;11.15;81.53
79663;BME280;69130;48.724;8.982;2023-05-27T05:10:23;97122.34;;;11.22;81.12
79663;BME280;69130;48.724;8.982;2023-05-27T05:12:48;97116.56;;;11.15;78.11
79663;BME280;69130;48.724;8.982;2023-05-27T05:15:14;97107.09;;;11.25;79.74
79663;BME280;69130;48.724;8.982;2023-05-27T05:17:39;97111.94;;;11.33;79.53
79663;BME280;69130;48.724;8.982;2023-05-27T05:20:05;97117.44;;;11.44;79.46
79663;BME280;69130;48.724;8.982;2023-05-27T05:22:31;97123.69;;;11.57;79.63
79663;BME280;69130;48.724;8.982;2023-05-27T05:24:56;97120.00;;;11.60;77.60
79663;BME280;69130;48.724;8.982;2023-05-27T05:27:22;97126.75;;;11.79;77.42
79663;BME280;69130;48.724;8.982;2023-05-27T05:29:47;97128.06;;;11.86;76.49
79663;BME280;69130;48.724;8.982;2023-05-27T05:32:12;97125.41;;;12.00;78.17
79663;BME280;69130;48.724;8.982;2023-05-27T05:34:38;97132.09;;;12.20;77.79
79663;BME280;69130;48.724;8.982;2023-05-27T05:37:04;97127.06;;;12.15;74.73
79663;BME280;69130;48.724;8.982;2023-05-27T05:39:30;97129.72;;;12.15;76.38
79663;BME280;69130;48.724;8.982;2023-05-27T05:41:55;97136.34;;;12.22;76.56
79663;BME280;69130;48.724;8.982;2023-05-27T05:44:23;97141.06;;;12.32;76.36
79663;BME280;69130;48.724;8.982;2023-05-27T05:46:48;97135.53;;;12.49;77.10
79663;BME280;69130;48.724;8.982;2023-05-27T05:49:14;97131.63;;;12.54;76.07
79663;BME280;69130;48.724;8.982;2023-05-27T05:51:39;97126.44;;;12.65;76.29
79663;BME280;69130;48.724;8.982;2023-05-27T05:54:05;97125.19;;;12.71;74.55
79663;BME280;69130;48.724;8.982;2023-05-27T05:56:31;97127.78;;;12.72;74.55
79663;BME280;69130;48.724;8.982;2023-05-27T05:58:56;97127.16;;;12.81;73.49
79663;BME280;69130;48.724;8.982;2023-05-27T06:01:22;97122.47;;;12.85;72.49
79663;BME280;69130;48.724;8.982;2023-05-27T06:03:48;97118.59;;;13.03;74.41
79663;BME280;69130;48.724;8.982;2023-05-27T06:06:13;97116.94;;;13.14;70.75
79663;BME280;69130;48.724;8.982;2023-05-27T06:08:40;97124.38;;;13.22;72.00
79663;BME280;69130;48.724;8.982;2023-05-27T06:11:05;97122.81;;;13.32;72.06
79663;BME280;69130;48.724;8.982;2023-05-27T06:13:30;97124.72;;;13.43;72.84
79663;BME280;69130;48.724;8.982;2023-05-27T06:15:56;97120.50;;;13.53;73.57
79663;BME280;69130;48.724;8.982;2023-05-27T06:18:21;97120.16;;;13.70;72.28
79663;BME280;69130;48.724;8.982;2023-05-27T06:20:47;97126.09;;;13.86;72.33
79663;BME280;69130;48.724;8.982;2023-05-27T06:23:12;97121.75;;;13.85;70.21
79663;BME280;69130;48.724;8.982;2023-05-27T06:25:38;97123.81;;;14.05;70.79
79663;BME280;69130;48.724;8.982;2023-05-27T06:28:03;97116.06;;;14.15;67.92
79663;BME280;69130;48.724;8.982;2023-05-27T06:30:28;97127.09;;;14.34;68.92
79663;BME280;69130;48.724;8.982;2023-05-27T06:32:54;97118.16;;;14.22;69.34
79663;BME280;69130;48.724;8.982;2023-05-27T06:35:20;97120.66;;;14.49;70.32
79663;BME280;69130;48.724;8.982;2023-05-27T06:37:45;97119.00;;;14.82;69.05
79663;BME280;69130;48.724;8.982;2023-05-27T06:40:11;97122.75;;;14.80;67.97
79663;BME280;69130;48.724;8.982;2023-05-27T06:42:37;97122.81;;;14.91;66.77
79663;BME280;69130;48.724;8.982;2023-05-27T06:45:02;97113.72;;;14.94;67.89
79663;BME280;69130;48.724;8.982;2023-05-27T06:47:28;97115.44;;;15.40;68.53
79663;BME280;69130;48.724;8.982;2023-05-27T06:49:53;97121.69;;;15.63;67.30
79663;BME280;69130;48.724;8.982;2023-05-27T06:52:19;97115.28;;;15.77;64.82
79663;BME280;69130;48.724;8.982;2023-05-27T06:54:44;97115.38;;;15.53;64.82
79663;BME280;69130;48.724;8.982;2023-05-27T06:57:11;97113.13;;;15.70;66.10
79663;BME280;69130;48.724;8.982;2023-05-27T06:59:36;97118.09;;;16.19;64.31
79663;BME280;69130;48.724;8.982;2023-05-27T07:02:01;97114.56;;;16.08;64.17
79663;BME280;69130;48.724;8.982;2023-05-27T07:04:27;97117.94;;;16.21;65.28
79663;BME280;69130;48.724;8.982;2023-05-27T07:06:52;97119.16;;;16.28;64.03
79663;BME280;69130;48.724;8.982;2023-05-27T07:09:18;97117.19;;;16.52;63.03
79663;BME280;69130;48.724;8.982;2023-05-27T07:11:43;97116.69;;;16.58;61.87
79663;BME280;69130;48.724;8.982;2023-05-27T07:14:08;97119.53;;;17.40;61.39
79663;BME280;69130;48.724;8.982;2023-05-27T07:16:36;97123.84;;;18.33;56.66
79663;BME280;69130;48.724;8.982;2023-05-27T07:19:02;97122.03;;;18.83;56.10
79663;BME280;69130;48.724;8.982;2023-05-27T07:21:28;97125.00;;;18.90;52.01
79663;BME280;69130;48.724;8.982;2023-05-27T07:23:53;97123.88;;;20.15;55.34
79663;BME280;69130;48.724;8.982;2023-05-27T07:26:18;97121.91;;;20.54;50.72
79663;BME280;69130;48.724;8.982;2023-05-27T07:28:45;97132.63;;;19.80;50.29
79663;BME280;69130;48.724;8.982;2023-05-27T07:31:10;97132.78;;;20.25;53.43
79663;BME280;69130;48.724;8.982;2023-05-27T07:33:36;97130.63;;;21.28;49.14
79663;BME280;69130;48.724;8.982;2023-05-27T07:36:01;97117.94;;;21.38;48.42
79663;BME280;69130;48.724;8.982;2023-05-27T07:38:26;97119.63;;;21.56;47.76
79663;BME280;69130;48.724;8.982;2023-05-27T07:40:52;97122.63;;;21.36;51.02
79663;BME280;69130;48.724;8.982;2023-05-27T07:43:17;97115.06;;;22.00;45.25
79663;BME280;69130;48.724;8.982;2023-05-27T07:45:42;97113.34;;;21.91;47.82
79663;BME280;69130;48.724;8.982;2023-05-27T07:48:08;97122.94;;;22.95;44.07
79663;BME280;69130;48.724;8.982;2023-05-27T07:50:33;97111.00;;;23.05;45.59
79663;BME280;69130;48.724;8.982;2023-05-27T07:52:59;97107.81;;;23.18;43.51
79663;BME280;69130;48.724;8.982;2023-05-27T07:55:24;97103.25;;;23.26;42.14
79663;BME280;69130;48.724;8.982;2023-05-27T07:57:50;97108.28;;;23.05;42.14
79663;BME280;69130;48.724;8.982;2023-05-27T08:00:15;97110.38;;;22.70;43.46
79663;BME280;69130;48.724;8.982;2023-05-27T08:02:40;97106.97;;;22.60;43.60
79663;BME280;69130;48.724;8.982;2023-05-27T08:05:08;97106.88;;;23.59;42.72
79663;BME280;69130;48.724;8.982;2023-05-27T08:07:34;97110.91;;;23.63;42.44
79663;BME280;69130;48.724;8.982;2023-05-27T08:09:59;97109.50;;;23.19;42.20
79663;BME280;69130;48.724;8.982;2023-05-27T08:12:25;97100.06;;;24.11;41.71
79663;BME280;69130;48.724;8.982;2023-05-27T08:14:50;97102.25;;;24.00;38.32
79663;BME280;69130;48.724;8.982;2023-05-27T08:17:16;97098.25;;;23.39;43.86
79663;BME280;69130;48.724;8.982;2023-05-27T08:19:41;97099.25;;;23.38;41.70
79663;BME280;69130;48.724;8.982;2023-05-27T08:22:06;97094.69;;;23.47;43.38
79663;BME280;69130;48.724;8.982;2023-05-27T08:24:35;97094.19;;;23.68;43.29
79663;BME280;69130;48.724;8.982;2023-05-27T08:27:01;97088.91;;;23.90;40.94
79663;BME280;69130;48.724;8.982;2023-05-27T08:29:28;97091.63;;;24.06;40.67
79663;BME280;69130;48.724;8.982;2023-05-27T08:31:55;97094.59;;;22.83;41.45
79663;BME280;69130;48.724;8.982;2023-05-27T08:34:21;97082.91;;;22.66;42.49
79663;BME280;69130;48.724;8.982;2023-05-27T08:36:46;97081.59;;;24.23;43.62
79663;BME280;69130;48.724;8.982;2023-05-27T08:39:12;97080.50;;;23.85;39.79
79663;BME280;69130;48.724;8.982;2023-05-27T08:41:38;97079.78;;;24.62;41.88
79663;BME280;69130;48.724;8.982;2023-05-27T08:44:04;97079.84;;;23.43;41.24
79663;BME280;69130;48.724;8.982;2023-05-27T08:46:29;97087.22;;;23.97;41.22
79663;BME280;69130;48.724;8.982;2023-05-27T08:48:56;97081.50;;;23.28;40.72
79663;BME280;69130;48.724;8.982;2023-05-27T08:51:23;97075.72;;;22.99;44.96
79663;BME280;69130;48.724;8.982;2023-05-27T08:53:50;97077.94;;;23.27;44.44
79663;BME280;69130;48.724;8.982;2023-05-27T08:56:18;97078.13;;;23.18;41.58
79663;BME280;69130;48.724;8.982;2023-05-27T08:58:45;97079.34;;;23.31;41.64
79663;BME280;69130;48.724;8.982;2023-05-27T09:01:10;97070.66;;;24.00;42.51
79663;BME280;69130;48.724;8.982;2023-05-27T09:03:36;97070.69;;;24.94;40.64
79663;BME280;69130;48.724;8.982;2023-05-27T09:06:02;97077.75;;;22.89;44.57
79663;BME280;69130;48.724;8.982;2023-05-27T09:08:30;97072.06;;;23.72;42.24
79663;BME280;69130;48.724;8.982;2023-05-27T09:10:55;97068.53;;;23.39;40.85
79663;BME280;69130;48.724;8.982;2023-05-27T09:13:30;97071.75;;;24.38;42.63
79663;BME280;69130;48.724;8.982;2023-05-27T09:16:04;97070.56;;;24.41;44.35
79663;BME280;69130;48.724;8.982;2023-05-27T09:18:33;97072.97;;;24.27;39.36
79663;BME280;69130;48.724;8.982;2023-05-27T09:21:00;97071.75;;;24.38;41.31
79663;BME280;69130;48.724;8.982;2023-05-27T09:23:25;97065.75;;;24.12;39.43
79663;BME280;69130;48.724;8.982;2023-05-27T09:25:52;97061.41;;;24.42;41.50
79663;BME280;69130;48.724;8.982;2023-05-27T09:28:23;97061.34;;;25.19;40.69
79663;BME280;69130;48.724;8.982;2023-05-27T09:31:08;97064.13;;;24.42;41.62
79663;BME280;69130;48.724;8.982;2023-05-27T09:33:36;97055.00;;;24.43;41.36
79663;BME280;69130;48.724;8.982;2023-05-27T09:36:03;97053.78;;;24.06;41.22
79663;BME280;69130;48.724;8.982;2023-05-27T09:38:34;97056.88;;;24.42;42.04
79663;BME280;69130;48.724;8.982;2023-05-27T09:41:00;97049.22;;;23.18;41.25
79663;BME280;69130;48.724;8.982;2023-05-27T09:43:26;97057.78;;;24.18;42.42
79663;BME280;69130;48.724;8.982;2023-05-27T09:45:58;97050.78;;;24.71;41.09
79663;BME280;69130;48.724;8.982;2023-05-27T09:48:25;97051.59;;;24.87;41.49
79663;BME280;69130;48.724;8.982;2023-05-27T09:50:52;97053.91;;;25.44;42.43
79663;BME280;69130;48.724;8.982;2023-05-27T09:53:20;97059.66;;;25.63;41.02
79663;BME280;69130;48.724;8.982;2023-05-27T09:55:48;97051.72;;;24.94;40.80
79663;BME280;69130;48.724;8.982;2023-05-27T09:58:14;97038.00;;;24.57;43.07
79663;BME280;69130;48.724;8.982;2023-05-27T10:00:41;97048.66;;;25.42;40.92
79663;BME280;69130;48.724;8.982;2023-05-27T10:03:07;97047.31;;;25.61;39.78
79663;BME280;69130;48.724;8.982;2023-05-27T10:05:33;97043.47;;;25.10;39.16
79663;BME280;69130;48.724;8.982;2023-05-27T10:07:59;97040.75;;;24.49;38.97
79663;BME280;69130;48.724;8.982;2023-05-27T10:10:24;97045.69;;;24.37;39.89
79663;BME280;69130;48.724;8.982;2023-05-27T10:12:51;97029.16;;;24.63;39.39
79663;BME280;69130;48.724;8.982;2023-05-27T10:15:28;97038.94;;;22.98;42.75
79663;BME280;69130;48.724;8.982;2023-05-27T10:17:56;97045.47;;;24.00;42.82
79663;BME280;69130;48.724;8.982;2023-05-27T10:20:32;97037.34;;;24.00;39.51
79663;BME280;69130;48.724;8.982;2023-05-27T10:23:15;97027.06;;;24.81;39.35
79663;BME280;69130;48.724;8.982;2023-05-27T10:25:46;97028.31;;;24.70;40.25
79663;BME280;69130;48.724;8.982;2023-05-27T10:31:06;97034.63;;;24.93;40.19
79663;BME280;69130;48.724;8.982;2023-05-27T10:33:37;97028.75;;;25.87;37.83
79663;BME280;69130;48.724;8.982;2023-05-27T10:36:04;97023.00;;;25.67;38.56
79663;BME280;69130;48.724;8.982;2023-05-27T10:38:29;97019.31;;;24.78;39.75
79663;BME280;69130;48.724;8.982;2023-05-27T10:41:06;97011.53;;;24.75;41.62
79663;BME280;69130;48.724;8.982;2023-05-27T10:43:32;97027.78;;;25.65;39.59
79663;BME280;69130;48.724;8.982;2023-05-27T10:46:07;97009.25;;;26.06;36.71
79663;BME280;69130;48.724;8.982;2023-05-27T10:48:34;97016.31;;;26.51;37.74
79663;BME280;69130;48.724;8.982;2023-05-27T10:50:59;97015.75;;;26.55;36.09
79663;BME280;69130;48.724;8.982;2023-05-27T10:53:26;97015.03;;;25.88;38.36
79663;BME280;69130;48.724;8.982;2023-05-27T10:55:52;97012.59;;;26.23;37.54
79663;BME280;69130;48.724;8.982;2023-05-27T10:58:19;97018.09;;;26.58;35.86
79663;BME280;69130;48.724;8.982;2023-05-27T11:00:47;97007.84;;;26.39;36.29
79663;BME280;69130;48.724;8.982;2023-05-27T11:03:21;97011.09;;;26.06;34.72
79663;BME280;69130;48.724;8.982;2023-05-27T11:06:07;97010.84;;;26.30;35.61
79663;BME280;69130;48.724;8.982;2023-05-27T11:08:33;97014.38;;;26.30;35.72
79663;BME280;69130;48.724;8.982;2023-05-27T11:11:06;97008.88;;;25.43;36.96
79663;BME280;69130;48.724;8.982;2023-05-27T11:13:33;97007.13;;;25.79;36.48
79663;BME280;69130;48.724;8.982;2023-05-27T11:16:04;97010.88;;;25.78;34.83
79663;BME280;69130;48.724;8.982;2023-05-27T11:18:48;97000.47;;;25.52;37.56
79663;BME280;69130;48.724;8.982;2023-05-27T11:21:15;96990.94;;;26.08;38.10
79663;BME280;69130;48.724;8.982;2023-05-27T11:23:47;96997.19;;;25.42;35.32
79663;BME280;69130;48.724;8.982;2023-05-27T11:28:53;96986.59;;;26.28;36.00
79663;BME280;69130;48.724;8.982;2023-05-27T11:31:26;96992.66;;;26.01;34.82
79663;BME280;69130;48.724;8.982;2023-05-27T11:33:52;96985.00;;;25.90;35.70
79663;BME280;69130;48.724;8.982;2023-05-27T11:36:18;96984.25;;;26.25;34.85
79663;BME280;69130;48.724;8.982;2023-05-27T11:38:50;96968.44;;;26.64;36.63
79663;BME280;69130;48.724;8.982;2023-05-27T11:41:17;96969.19;;;26.23;37.11
79663;BME280;69130;48.724;8.982;2023-05-27T11:44:05;96974.66;;;25.42;37.97
79663;BME280;69130;48.724;8.982;2023-05-27T11:46:39;96980.13;;;25.71;37.04
79663;BME280;69130;48.724;8.982;2023-05-27T11:49:05;96968.19;;;26.24;36.65
79663;BME280;69130;48.724;8.982;2023-05-27T11:51:36;96971.09;;;26.08;36.58
79663;BME280;69130;48.724;8.982;2023-05-27T11:54:02;96966.97;;;25.08;35.50
79663;BME280;69130;48.724;8.982;2023-05-27T11:56:28;96953.38;;;24.40;36.70
79663;BME280;69130;48.724;8.982;2023-05-27T11:58:54;96950.41;;;24.58;35.49
79663;BME280;69130;48.724;8.982;2023-05-27T12:01:20;96940.03;;;25.66;37.18
79663;BME280;69130;48.724;8.982;2023-05-27T12:03:46;96945.56;;;25.73;37.19
79663;BME280;69130;48.724;8.982;2023-05-27T12:06:11;96940.84;;;25.15;35.06
79663;BME280;69130;48.724;8.982;2023-05-27T12:08:36;96938.19;;;24.62;36.62
79663;BME280;69130;48.724;8.982;2023-05-27T12:11:04;96928.97;;;24.48;36.85
79663;BME280;69130;48.724;8.982;2023-05-27T12:13:29;96932.91;;;25.51;36.07
79663;BME280;69130;48.724;8.982;2023-05-27T12:15:56;96916.47;;;24.92;36.87
79663;BME280;69130;48.724;8.982;2023-05-27T12:18:22;96923.66;;;25.74;36.54
79663;BME280;69130;48.724;8.982;2023-05-27T12:20:48;96920.75;;;25.76;36.53
79663;BME280;69130;48.724;8.982;2023-05-27T12:23:13;96917.97;;;25.32;34.60
79663;BME280;69130;48.724;8.982;2023-05-27T12:25:39;96915.34;;;25.24;35.93
79663;BME280;69130;48.724;8.982;2023-05-27T12:28:07;96914.09;;;25.12;34.96
79663;BME280;69130;48.724;8.982;2023-05-27T12:30:32;96911.84;;;25.01;36.82
79663;BME280;69130;48.724;8.982;2023-05-27T12:32:58;96906.97;;;24.96;36.14
79663;BME280;69130;48.724;8.982;2023-05-27T12:35:24;96897.50;;;24.78;36.06
79663;BME280;69130;48.724;8.982;2023-05-27T12:37:50;96894.69;;;25.60;36.60
79663;BME280;69130;48.724;8.982;2023-05-27T12:40:15;96901.97;;;25.45;36.98
79663;BME280;69130;48.724;8.982;2023-05-27T12:42:41;96897.09;;;25.41;34.73
79663;BME280;69130;48.724;8.982;2023-05-27T12:45:08;96905.44;;;25.17;34.80
79663;BME280;69130;48.724;8.982;2023-05-27T12:47:34;96903.00;;;25.44;35.19
79663;BME280;69130;48.724;8.982;2023-05-27T12:49:59;96903.50;;;25.25;35.12
79663;BME280;69130;48.724;8.982;2023-05-27T12:52:25;96891.44;;;25.28;37.60
79663;BME280;69130;48.724;8.982;2023-05-27T12:54:50;96892.47;;;25.27;34.89
79663;BME280;69130;48.724;8.982;2023-05-27T12:57:16;96889.53;;;25.51;33.15
79663;BME280;69130;48.724;8.982;2023-05-27T12:59:41;96882.34;;;25.43;34.73
79663;BME280;69130;48.724;8.982;2023-05-27T13:02:06;96882.06;;;25.53;35.57
79663;BME280;69130;48.724;8.982;2023-05-27T13:04:32;96879.81;;;25.42;33.47